sensor_id;sensor_type;location;lat;lon;timestamp;temperature;humidity
70534;SHT31;58088;51.186;17.130;2023-06-26T00:00:45;17.49;67.83
70534;SHT31;58088;51.186;17.130;2023-06-26T00:03:13;17.48;67.76
70534;SHT31;58088;51.186;17.130;2023-06-26T00:05:41;17.48;67.73
70534;SHT31;58088;51.186;17.130;2023-06-26T00:08:08;17.48;67.64
70534;SHT31;58088;51.186;17.130;2023-06-26T00:10:34;17.49;67.50
70534;SHT31;58088;51.186;17.130;2023-06-26T00:13:00;17.46;67.27
70534;SHT31;58088;51.186;17.130;2023-06-26T00:15:28;17.46;67.21
70534;SHT31;58088;51.186;17.130;2023-06-26T00:17:57;17.44;67.70
70534;SHT31;58088;51.186;17.130;2023-06-26T00:20:24;17.43;67.78
70534;SHT31;58088;51.186;17.130;2023-06-26T00:22:51;17.40;67.77
70534;SHT31;58088;51.186;17.130;2023-06-26T00:25:19;17.38;67.95
70534;SHT31;58088;51.186;17.130;2023-06-26T00:27:45;17.37;68.06
70534;SHT31;58088;51.186;17.130;2023-06-26T00:30:11;17.34;68.05
70534;SHT31;58088;51.186;17.130;2023-06-26T00:32:38;17.34;67.91
70534;SHT31;58088;51.186;17.130;2023-06-26T00:35:04;17.32;67.73
70534;SHT31;58088;51.186;17.130;2023-06-26T00:37:31;17.31;67.63
70534;SHT31;58088;51.186;17.130;2023-06-26T00:39:57;17.29;67.68
70534;SHT31;58088;51.186;17.130;2023-06-26T00:42:23;17.28;67.46
70534;SHT31;58088;51.186;17.130;2023-06-26T00:44:49;17.28;67.28
70534;SHT31;58088;51.186;17.130;2023-06-26T00:47:15;17.26;67.54
70534;SHT31;58088;51.186;17.130;2023-06-26T00:49:43;17.22;67.78
70534;SHT31;58088;51.186;17.130;2023-06-26T00:52:10;17.20;67.92
70534;SHT31;58088;51.186;17.130;2023-06-26T00:54:36;17.19;67.90
70534;SHT31;58088;51.186;17.130;2023-06-26T00:57:02;17.18;67.94
70534;SHT31;58088;51.186;17.130;2023-06-26T00:59:29;17.17;67.89
70534;SHT31;58088;51.186;17.130;2023-06-26T01:01:55;17.17;67.85
70534;SHT31;58088;51.186;17.130;2023-06-26T01:04:22;17.14;68.10
70534;SHT31;58088;51.186;17.130;2023-06-26T01:06:53;17.13;68.35
70534;SHT31;58088;51.186;17.130;2023-06-26T01:09:24;17.15;68.35
70534;SHT31;58088;51.186;17.130;2023-06-26T01:11:51;17.14;68.44
70534;SHT31;58088;51.186;17.130;2023-06-26T01:14:18;17.13;68.61
70534;SHT31;58088;51.186;17.130;2023-06-26T01:16:44;17.13;68.77
70534;SHT31;58088;51.186;17.130;2023-06-26T01:19:19;17.12;68.85
70534;SHT31;58088;51.186;17.130;2023-06-26T01:25:04;17.09;68.99
70534;SHT31;58088;51.186;17.130;2023-06-26T01:27:55;17.08;69.07
70534;SHT31;58088;51.186;17.130;2023-06-26T01:30:23;17.08;69.04
70534;SHT31;58088;51.186;17.130;2023-06-26T01:32:51;17.02;69.38
70534;SHT31;58088;51.186;17.130;2023-06-26T01:35:17;16.97;69.62
70534;SHT31;58088;51.186;17.130;2023-06-26T01:37:44;16.97;69.83
70534;SHT31;58088;51.186;17.130;2023-06-26T01:40:10;16.96;69.79
70534;SHT31;58088;51.186;17.130;2023-06-26T01:42:38;16.95;69.68
70534;SHT31;58088;51.186;17.130;2023-06-26T01:45:16;16.94;69.62
70534;SHT31;58088;51.186;17.130;2023-06-26T01:47:54;16.92;69.73
70534;SHT31;58088;51.186;17.130;2023-06-26T01:50:26;16.92;69.67
70534;SHT31;58088;51.186;17.130;2023-06-26T01:55:50;16.90;70.00
70534;SHT31;58088;51.186;17.130;2023-06-26T01:58:26;16.88;70.10
70534;SHT31;58088;51.186;17.130;2023-06-26T02:04:37;16.86;70.69
70534;SHT31;58088;51.186;17.130;2023-06-26T02:07:06;16.84;70.57
70534;SHT31;58088;51.186;17.130;2023-06-26T02:09:32;16.81;70.24
70534;SHT31;58088;51.186;17.130;2023-06-26T02:11:58;16.79;70.19
70534;SHT31;58088;51.186;17.130;2023-06-26T02:14:25;16.74;70.33
70534;SHT31;58088;51.186;17.130;2023-06-26T02:16:51;16.71;70.62
70534;SHT31;58088;51.186;17.130;2023-06-26T02:19:17;16.65;70.90
70534;SHT31;58088;51.186;17.130;2023-06-26T02:21:50;16.63;71.27
70534;SHT31;58088;51.186;17.130;2023-06-26T02:24:16;16.64;71.39
70534;SHT31;58088;51.186;17.130;2023-06-26T02:26:42;16.67;71.38
70534;SHT31;58088;51.186;17.130;2023-06-26T02:29:10;16.67;71.28
70534;SHT31;58088;51.186;17.130;2023-06-26T02:31:39;16.69;71.19
70534;SHT31;58088;51.186;17.130;2023-06-26T02:34:06;16.68;71.24
70534;SHT31;58088;51.186;17.130;2023-06-26T02:36:33;16.67;71.37
70534;SHT31;58088;51.186;17.130;2023-06-26T02:38:59;16.69;71.41
70534;SHT31;58088;51.186;17.130;2023-06-26T02:41:25;16.69;71.38
70534;SHT31;58088;51.186;17.130;2023-06-26T02:43:51;16.67;71.56
70534;SHT31;58088;51.186;17.130;2023-06-26T02:46:18;16.63;71.80
70534;SHT31;58088;51.186;17.130;2023-06-26T02:48:44;16.55;71.87
70534;SHT31;58088;51.186;17.130;2023-06-26T02:51:11;16.56;71.93
70534;SHT31;58088;51.186;17.130;2023-06-26T02:53:37;16.58;72.11
70534;SHT31;58088;51.186;17.130;2023-06-26T02:56:04;16.64;72.27
70534;SHT31;58088;51.186;17.130;2023-06-26T02:58:31;16.73;72.20
70534;SHT31;58088;51.186;17.130;2023-06-26T03:00:57;16.80;72.16
70534;SHT31;58088;51.186;17.130;2023-06-26T03:03:23;16.92;72.00
70534;SHT31;58088;51.186;17.130;2023-06-26T03:05:49;17.13;71.43
70534;SHT31;58088;51.186;17.130;2023-06-26T03:08:15;17.38;70.81
70534;SHT31;58088;51.186;17.130;2023-06-26T03:10:42;17.63;70.01
70534;SHT31;58088;51.186;17.130;2023-06-26T03:13:10;17.86;69.36
70534;SHT31;58088;51.186;17.130;2023-06-26T03:15:36;18.04;69.35
70534;SHT31;58088;51.186;17.130;2023-06-26T03:18:02;18.27;69.47
70534;SHT31;58088;51.186;17.130;2023-06-26T03:20:29;18.51;69.14
70534;SHT31;58088;51.186;17.130;2023-06-26T03:22:57;18.77;68.57
70534;SHT31;58088;51.186;17.130;2023-06-26T03:25:23;19.07;67.87
70534;SHT31;58088;51.186;17.130;2023-06-26T03:27:55;19.44;67.19
70534;SHT31;58088;51.186;17.130;2023-06-26T03:30:21;19.69;66.76
70534;SHT31;58088;51.186;17.130;2023-06-26T03:32:49;19.96;66.41
70534;SHT31;58088;51.186;17.130;2023-06-26T03:35:15;20.18;65.88
70534;SHT31;58088;51.186;17.130;2023-06-26T03:37:41;20.45;65.51
70534;SHT31;58088;51.186;17.130;2023-06-26T03:40:08;20.76;64.97
70534;SHT31;58088;51.186;17.130;2023-06-26T03:42:36;21.12;64.26
70534;SHT31;58088;51.186;17.130;2023-06-26T03:45:02;21.46;63.43
70534;SHT31;58088;51.186;17.130;2023-06-26T03:47:30;21.78;62.80
70534;SHT31;58088;51.186;17.130;2023-06-26T03:49:56;22.08;62.22
70534;SHT31;58088;51.186;17.130;2023-06-26T03:52:22;22.37;61.60
70534;SHT31;58088;51.186;17.130;2023-06-26T03:54:49;22.64;61.17
70534;SHT31;58088;51.186;17.130;2023-06-26T03:57:16;23.00;60.69
70534;SHT31;58088;51.186;17.130;2023-06-26T03:59:42;23.39;59.93
70534;SHT31;58088;51.186;17.130;2023-06-26T04:02:08;23.71;59.20
70534;SHT31;58088;51.186;17.130;2023-06-26T04:04:35;24.01;58.62
70534;SHT31;58088;51.186;17.130;2023-06-26T04:07:01;24.31;58.02
70534;SHT31;58088;51.186;17.130;2023-06-26T04:09:28;24.64;57.35
70534;SHT31;58088;51.186;17.130;2023-06-26T04:11:54;24.96;56.81
70534;SHT31;58088;51.186;17.130;2023-06-26T04:14:20;25.22;56.20
70534;SHT31;58088;51.186;17.130;2023-06-26T04:16:46;25.50;55.69
70534;SHT31;58088;51.186;17.130;2023-06-26T04:19:13;25.78;54.77
70534;SHT31;58088;51.186;17.130;2023-06-26T04:21:39;26.11;54.21
70534;SHT31;58088;51.186;17.130;2023-06-26T04:24:05;26.38;53.41
70534;SHT31;58088;51.186;17.130;2023-06-26T04:26:32;26.69;53.25
70534;SHT31;58088;51.186;17.130;2023-06-26T04:28:58;26.98;52.48
70534;SHT31;58088;51.186;17.130;2023-06-26T04:31:25;27.22;51.78
70534;SHT31;58088;51.186;17.130;2023-06-26T04:33:52;27.47;51.13
70534;SHT31;58088;51.186;17.130;2023-06-26T04:36:20;27.72;50.76
70534;SHT31;58088;51.186;17.130;2023-06-26T04:38:47;27.97;49.92
70534;SHT31;58088;51.186;17.130;2023-06-26T04:41:13;28.21;49.42
70534;SHT31;58088;51.186;17.130;2023-06-26T04:43:40;28.36;49.25
70534;SHT31;58088;51.186;17.130;2023-06-26T04:46:06;28.55;48.66
70534;SHT31;58088;51.186;17.130;2023-06-26T04:48:32;28.77;48.38
70534;SHT31;58088;51.186;17.130;2023-06-26T04:50:59;29.00;48.03
70534;SHT31;58088;51.186;17.130;2023-06-26T04:53:25;29.18;47.59
70534;SHT31;58088;51.186;17.130;2023-06-26T04:55:52;29.46;47.45
70534;SHT31;58088;51.186;17.130;2023-06-26T04:58:19;29.79;47.01
70534;SHT31;58088;51.186;17.130;2023-06-26T05:00:46;30.04;46.10
70534;SHT31;58088;51.186;17.130;2023-06-26T05:03:13;30.15;45.90
70534;SHT31;58088;51.186;17.130;2023-06-26T05:05:41;30.39;45.62
70534;SHT31;58088;51.186;17.130;2023-06-26T05:08:18;30.66;45.40
70534;SHT31;58088;51.186;17.130;2023-06-26T05:10:49;30.88;44.72
70534;SHT31;58088;51.186;17.130;2023-06-26T05:13:15;31.09;44.69
70534;SHT31;58088;51.186;17.130;2023-06-26T05:15:43;31.39;43.75
70534;SHT31;58088;51.186;17.130;2023-06-26T05:18:10;31.60;43.33
70534;SHT31;58088;51.186;17.130;2023-06-26T05:20:36;31.69;42.99
70534;SHT31;58088;51.186;17.130;2023-06-26T05:23:04;31.89;42.67
70534;SHT31;58088;51.186;17.130;2023-06-26T05:25:34;32.10;42.26
70534;SHT31;58088;51.186;17.130;2023-06-26T05:28:01;32.22;41.94
70534;SHT31;58088;51.186;17.130;2023-06-26T05:30:31;32.35;41.48
70534;SHT31;58088;51.186;17.130;2023-06-26T05:33:04;32.51;41.57
70534;SHT31;58088;51.186;17.130;2023-06-26T05:35:35;32.69;41.15
70534;SHT31;58088;51.186;17.130;2023-06-26T05:38:03;32.81;41.25
70534;SHT31;58088;51.186;17.130;2023-06-26T05:40:32;32.97;41.05
70534;SHT31;58088;51.186;17.130;2023-06-26T05:43:00;33.17;40.88
70534;SHT31;58088;51.186;17.130;2023-06-26T05:45:29;33.27;40.59
70534;SHT31;58088;51.186;17.130;2023-06-26T05:47:56;33.21;40.38
70534;SHT31;58088;51.186;17.130;2023-06-26T05:50:22;33.22;40.47
70534;SHT31;58088;51.186;17.130;2023-06-26T05:52:49;33.30;40.26
70534;SHT31;58088;51.186;17.130;2023-06-26T05:55:16;33.35;39.98
70534;SHT31;58088;51.186;17.130;2023-06-26T05:57:43;33.35;39.98
70534;SHT31;58088;51.186;17.130;2023-06-26T06:00:12;33.41;39.85
70534;SHT31;58088;51.186;17.130;2023-06-26T06:02:39;33.46;39.28
70534;SHT31;58088;51.186;17.130;2023-06-26T06:05:07;33.58;39.51
70534;SHT31;58088;51.186;17.130;2023-06-26T06:07:34;33.85;39.57
70534;SHT31;58088;51.186;17.130;2023-06-26T06:10:02;33.99;39.34
70534;SHT31;58088;51.186;17.130;2023-06-26T06:12:29;34.00;39.10
70534;SHT31;58088;51.186;17.130;2023-06-26T06:14:56;34.06;38.71
70534;SHT31;58088;51.186;17.130;2023-06-26T06:17:22;34.16;38.40
70534;SHT31;58088;51.186;17.130;2023-06-26T06:19:49;34.01;37.96
70534;SHT31;58088;51.186;17.130;2023-06-26T06:22:15;33.97;38.37
70534;SHT31;58088;51.186;17.130;2023-06-26T06:24:43;34.06;38.52
70534;SHT31;58088;51.186;17.130;2023-06-26T06:27:09;34.12;38.62
70534;SHT31;58088;51.186;17.130;2023-06-26T06:29:35;34.19;38.03
70534;SHT31;58088;51.186;17.130;2023-06-26T06:32:02;34.26;37.95
70534;SHT31;58088;51.186;17.130;2023-06-26T06:34:29;34.34;37.90
70534;SHT31;58088;51.186;17.130;2023-06-26T06:36:55;34.45;38.17
70534;SHT31;58088;51.186;17.130;2023-06-26T06:39:21;34.60;37.72
70534;SHT31;58088;51.186;17.130;2023-06-26T06:41:47;34.60;37.47
70534;SHT31;58088;51.186;17.130;2023-06-26T06:44:13;34.69;37.20
70534;SHT31;58088;51.186;17.130;2023-06-26T06:46:39;34.78;37.79
70534;SHT31;58088;51.186;17.130;2023-06-26T06:49:06;34.90;37.80
70534;SHT31;58088;51.186;17.130;2023-06-26T06:51:34;35.02;36.99
70534;SHT31;58088;51.186;17.130;2023-06-26T06:54:01;35.10;36.69
70534;SHT31;58088;51.186;17.130;2023-06-26T06:56:27;35.21;36.46
70534;SHT31;58088;51.186;17.130;2023-06-26T06:58:54;35.21;35.71
70534;SHT31;58088;51.186;17.130;2023-06-26T07:01:20;35.15;35.86
70534;SHT31;58088;51.186;17.130;2023-06-26T07:03:46;35.16;35.86
70534;SHT31;58088;51.186;17.130;2023-06-26T07:06:12;35.18;36.34
70534;SHT31;58088;51.186;17.130;2023-06-26T07:08:39;35.19;36.32
70534;SHT31;58088;51.186;17.130;2023-06-26T07:11:05;35.26;36.88
70534;SHT31;58088;51.186;17.130;2023-06-26T07:13:31;35.30;36.49
70534;SHT31;58088;51.186;17.130;2023-06-26T07:15:57;35.28;36.14
70534;SHT31;58088;51.186;17.130;2023-06-26T07:18:24;35.25;35.74
70534;SHT31;58088;51.186;17.130;2023-06-26T07:20:50;35.17;36.42
70534;SHT31;58088;51.186;17.130;2023-06-26T07:23:16;35.00;35.63
70534;SHT31;58088;51.186;17.130;2023-06-26T07:25:42;34.96;35.52
70534;SHT31;58088;51.186;17.130;2023-06-26T07:28:11;34.92;36.13
70534;SHT31;58088;51.186;17.130;2023-06-26T07:30:38;34.98;35.93
70534;SHT31;58088;51.186;17.130;2023-06-26T07:33:05;34.94;35.45
70534;SHT31;58088;51.186;17.130;2023-06-26T07:35:31;34.85;35.77
70534;SHT31;58088;51.186;17.130;2023-06-26T07:37:59;34.87;35.64
70534;SHT31;58088;51.186;17.130;2023-06-26T07:40:25;34.98;35.31
70534;SHT31;58088;51.186;17.130;2023-06-26T07:42:52;35.02;35.16
70534;SHT31;58088;51.186;17.130;2023-06-26T07:45:19;35.10;35.13
70534;SHT31;58088;51.186;17.130;2023-06-26T07:47:45;35.12;35.11
70534;SHT31;58088;51.186;17.130;2023-06-26T07:50:11;35.06;35.74
70534;SHT31;58088;51.186;17.130;2023-06-26T07:52:38;35.04;35.69
70534;SHT31;58088;51.186;17.130;2023-06-26T07:55:04;34.94;35.23
70534;SHT31;58088;51.186;17.130;2023-06-26T07:57:30;34.90;35.25
70534;SHT31;58088;51.186;17.130;2023-06-26T07:59:58;34.86;35.44
70534;SHT31;58088;51.186;17.130;2023-06-26T08:02:24;34.85;35.28
70534;SHT31;58088;51.186;17.130;2023-06-26T08:04:50;34.81;34.87
70534;SHT31;58088;51.186;17.130;2023-06-26T08:07:16;34.77;35.20
70534;SHT31;58088;51.186;17.130;2023-06-26T08:09:42;34.78;34.62
70534;SHT31;58088;51.186;17.130;2023-06-26T08:12:08;34.85;34.59
70534;SHT31;58088;51.186;17.130;2023-06-26T08:14:35;35.01;35.22
70534;SHT31;58088;51.186;17.130;2023-06-26T08:17:01;35.12;35.47
70534;SHT31;58088;51.186;17.130;2023-06-26T08:19:27;35.08;35.09
70534;SHT31;58088;51.186;17.130;2023-06-26T08:21:54;34.89;35.01
70534;SHT31;58088;51.186;17.130;2023-06-26T08:24:20;34.75;35.06
70534;SHT31;58088;51.186;17.130;2023-06-26T08:26:46;34.69;34.38
70534;SHT31;58088;51.186;17.130;2023-06-26T08:29:14;34.47;33.47
70534;SHT31;58088;51.186;17.130;2023-06-26T08:31:41;34.32;34.10
70534;SHT31;58088;51.186;17.130;2023-06-26T08:34:08;34.33;34.10
70534;SHT31;58088;51.186;17.130;2023-06-26T08:36:34;34.40;33.94
70534;SHT31;58088;51.186;17.130;2023-06-26T08:39:01;34.56;33.92
70534;SHT31;58088;51.186;17.130;2023-06-26T08:41:28;34.71;34.36
70534;SHT31;58088;51.186;17.130;2023-06-26T08:43:54;34.60;34.99
70534;SHT31;58088;51.186;17.130;2023-06-26T08:46:21;34.51;34.29
70534;SHT31;58088;51.186;17.130;2023-06-26T08:48:55;34.56;33.68
70534;SHT31;58088;51.186;17.130;2023-06-26T08:51:23;34.67;33.69
70534;SHT31;58088;51.186;17.130;2023-06-26T08:54:00;34.69;33.72
70534;SHT31;58088;51.186;17.130;2023-06-26T08:56:36;34.65;33.55
70534;SHT31;58088;51.186;17.130;2023-06-26T08:59:08;34.41;33.95
70534;SHT31;58088;51.186;17.130;2023-06-26T09:01:39;34.26;34.75
70534;SHT31;58088;51.186;17.130;2023-06-26T09:04:06;34.15;35.04
70534;SHT31;58088;51.186;17.130;2023-06-26T09:06:33;34.14;34.93
70534;SHT31;58088;51.186;17.130;2023-06-26T09:08:59;34.21;34.81
70534;SHT31;58088;51.186;17.130;2023-06-26T09:11:26;34.22;34.78
70534;SHT31;58088;51.186;17.130;2023-06-26T09:13:52;34.15;34.42
70534;SHT31;58088;51.186;17.130;2023-06-26T09:16:24;34.02;33.34
70534;SHT31;58088;51.186;17.130;2023-06-26T09:18:55;33.96;33.19
70534;SHT31;58088;51.186;17.130;2023-06-26T09:21:22;33.86;33.80
70534;SHT31;58088;51.186;17.130;2023-06-26T09:23:49;33.83;33.72
70534;SHT31;58088;51.186;17.130;2023-06-26T09:26:16;33.75;33.57
70534;SHT31;58088;51.186;17.130;2023-06-26T09:28:42;33.71;34.84
70534;SHT31;58088;51.186;17.130;2023-06-26T09:31:08;33.79;34.64
70534;SHT31;58088;51.186;17.130;2023-06-26T09:33:36;33.86;34.71
70534;SHT31;58088;51.186;17.130;2023-06-26T09:36:04;33.91;33.41
70534;SHT31;58088;51.186;17.130;2023-06-26T09:38:44;33.88;33.44
70534;SHT31;58088;51.186;17.130;2023-06-26T09:41:10;33.77;32.71
70534;SHT31;58088;51.186;17.130;2023-06-26T09:43:45;33.65;33.22
70534;SHT31;58088;51.186;17.130;2023-06-26T09:46:25;33.69;32.87
70534;SHT31;58088;51.186;17.130;2023-06-26T09:51:35;33.58;32.66
70534;SHT31;58088;51.186;17.130;2023-06-26T09:54:03;33.50;32.00
70534;SHT31;58088;51.186;17.130;2023-06-26T09:56:31;33.50;31.83
70534;SHT31;58088;51.186;17.130;2023-06-26T09:59:00;33.31;31.11
70534;SHT31;58088;51.186;17.130;2023-06-26T10:01:31;33.16;31.82
70534;SHT31;58088;51.186;17.130;2023-06-26T10:03:58;33.26;31.81
70534;SHT31;58088;51.186;17.130;2023-06-26T10:08:56;33.31;33.26
70534;SHT31;58088;51.186;17.130;2023-06-26T10:11:25;33.32;32.58
70534;SHT31;58088;51.186;17.130;2023-06-26T10:14:15;33.30;31.89
70534;SHT31;58088;51.186;17.130;2023-06-26T10:16:42;33.33;32.76
70534;SHT31;58088;51.186;17.130;2023-06-26T10:19:12;33.40;33.21
70534;SHT31;58088;51.186;17.130;2023-06-26T10:21:44;33.53;32.56
70534;SHT31;58088;51.186;17.130;2023-06-26T10:24:11;33.42;32.19
70534;SHT31;58088;51.186;17.130;2023-06-26T10:26:41;33.21;31.97
70534;SHT31;58088;51.186;17.130;2023-06-26T10:29:11;33.16;31.81
70534;SHT31;58088;51.186;17.130;2023-06-26T10:31:42;33.19;32.25
70534;SHT31;58088;51.186;17.130;2023-06-26T10:34:15;33.25;33.03
70534;SHT31;58088;51.186;17.130;2023-06-26T10:36:42;33.30;32.75
70534;SHT31;58088;51.186;17.130;2023-06-26T10:39:09;33.28;32.88
70534;SHT31;58088;51.186;17.130;2023-06-26T10:41:36;33.31;33.26
70534;SHT31;58088;51.186;17.130;2023-06-26T10:44:08;33.36;33.67
70534;SHT31;58088;51.186;17.130;2023-06-26T10:49:32;33.19;33.69
70534;SHT31;58088;51.186;17.130;2023-06-26T10:52:04;33.22;33.36
70534;SHT31;58088;51.186;17.130;2023-06-26T10:54:31;33.33;32.81
70534;SHT31;58088;51.186;17.130;2023-06-26T10:56:59;33.28;33.46
70534;SHT31;58088;51.186;17.130;2023-06-26T10:59:29;33.17;33.73
70534;SHT31;58088;51.186;17.130;2023-06-26T11:02:00;32.99;34.27
70534;SHT31;58088;51.186;17.130;2023-06-26T11:04:45;32.69;34.12
70534;SHT31;58088;51.186;17.130;2023-06-26T11:07:21;32.50;33.55
70534;SHT31;58088;51.186;17.130;2023-06-26T11:12:36;32.02;34.47
70534;SHT31;58088;51.186;17.130;2023-06-26T11:17:38;31.99;36.09
70534;SHT31;58088;51.186;17.130;2023-06-26T11:20:08;32.03;35.69
70534;SHT31;58088;51.186;17.130;2023-06-26T11:22:37;32.11;35.00
70534;SHT31;58088;51.186;17.130;2023-06-26T11:25:05;32.21;34.96
70534;SHT31;58088;51.186;17.130;2023-06-26T11:27:40;32.28;34.69
70534;SHT31;58088;51.186;17.130;2023-06-26T11:30:08;32.38;35.35
70534;SHT31;58088;51.186;17.130;2023-06-26T11:32:49;32.49;35.84
70534;SHT31;58088;51.186;17.130;2023-06-26T11:35:22;32.54;35.26
70534;SHT31;58088;51.186;17.130;2023-06-26T11:37:59;32.54;34.61
70534;SHT31;58088;51.186;17.130;2023-06-26T11:40:30;32.56;34.78
70534;SHT31;58088;51.186;17.130;2023-06-26T11:42:59;32.47;34.31
70534;SHT31;58088;51.186;17.130;2023-06-26T11:45:29;32.28;34.08
70534;SHT31;58088;51.186;17.130;2023-06-26T11:47:57;32.22;34.71
70534;SHT31;58088;51.186;17.130;2023-06-26T11:50:25;32.22;35.14
70534;SHT31;58088;51.186;17.130;2023-06-26T11:52:54;32.27;35.27
70534;SHT31;58088;51.186;17.130;2023-06-26T11:55:22;32.35;34.70
70534;SHT31;58088;51.186;17.130;2023-06-26T11:57:52;32.36;33.98
70534;SHT31;58088;51.186;17.130;2023-06-26T12:00:20;32.45;35.31
70534;SHT31;58088;51.186;17.130;2023-06-26T12:02:47;32.54;35.57
70534;SHT31;58088;51.186;17.130;2023-06-26T12:05:14;32.58;35.53
70534;SHT31;58088;51.186;17.130;2023-06-26T12:07:42;32.68;35.78
70534;SHT31;58088;51.186;17.130;2023-06-26T12:10:13;32.79;35.19
70534;SHT31;58088;51.186;17.130;2023-06-26T12:12:41;32.80;34.52
70534;SHT31;58088;51.186;17.130;2023-06-26T12:15:08;32.72;34.18
70534;SHT31;58088;51.186;17.130;2023-06-26T12:17:38;32.72;34.37
70534;SHT31;58088;51.186;17.130;2023-06-26T12:20:18;32.78;34.59
70534;SHT31;58088;51.186;17.130;2023-06-26T12:22:48;32.84;34.58
70534;SHT31;58088;51.186;17.130;2023-06-26T12:25:15;32.85;34.10
70534;SHT31;58088;51.186;17.130;2023-06-26T12:27:49;32.76;33.79
70534;SHT31;58088;51.186;17.130;2023-06-26T12:30:17;32.67;33.82
70534;SHT31;58088;51.186;17.130;2023-06-26T12:32:46;32.59;35.10
70534;SHT31;58088;51.186;17.130;2023-06-26T12:35:13;32.63;35.17
70534;SHT31;58088;51.186;17.130;2023-06-26T12:37:41;32.70;35.31
70534;SHT31;58088;51.186;17.130;2023-06-26T12:40:16;32.71;34.57
70534;SHT31;58088;51.186;17.130;2023-06-26T12:42:44;32.69;34.54
70534;SHT31;58088;51.186;17.130;2023-06-26T12:45:12;32.63;33.87
70534;SHT31;58088;51.186;17.130;2023-06-26T12:47:40;32.63;34.35
70534;SHT31;58088;51.186;17.130;2023-06-26T12:50:11;32.61;34.44
70534;SHT31;58088;51.186;17.130;2023-06-26T12:52:38;32.60;34.00
70534;SHT31;58088;51.186;17.130;2023-06-26T12:55:04;32.66;35.12
70534;SHT31;58088;51.186;17.130;2023-06-26T12:57:31;32.71;33.86
70534;SHT31;58088;51.186;17.130;2023-06-26T12:59:57;32.74;34.73
70534;SHT31;58088;51.186;17.130;2023-06-26T13:02:25;32.78;34.93
70534;SHT31;58088;51.186;17.130;2023-06-26T13:04:51;32.83;35.32
70534;SHT31;58088;51.186;17.130;2023-06-26T13:07:17;32.83;34.84
70534;SHT31;58088;51.186;17.130;2023-06-26T13:09:44;32.84;34.85
70534;SHT31;58088;51.186;17.130;2023-06-26T13:12:11;32.83;34.69
70534;SHT31;58088;51.186;17.130;2023-06-26T13:14:38;32.86;35.12
70534;SHT31;58088;51.186;17.130;2023-06-26T13:17:04;32.88;34.83
70534;SHT31;58088;51.186;17.130;2023-06-26T13:19:30;32.90;34.82
70534;SHT31;58088;51.186;17.130;2023-06-26T13:21:57;32.90;34.64
70534;SHT31;58088;51.186;17.130;2023-06-26T13:24:23;32.84;34.29
70534;SHT31;58088;51.186;17.130;2023-06-26T13:26:50;32.82;34.76
70534;SHT31;58088;51.186;17.130;2023-06-26T13:29:16;32.82;34.01
70534;SHT31;58088;51.186;17.130;2023-06-26T13:31:42;32.77;33.74
70534;SHT31;58088;51.186;17.130;2023-06-26T13:34:09;32.72;33.56
70534;SHT31;58088;51.186;17.130;2023-06-26T13:36:47;32.66;33.23
70534;SHT31;58088;51.186;17.130;2023-06-26T13:39:13;32.57;33.32
70534;SHT31;58088;51.186;17.130;2023-06-26T13:41:40;32.51;33.03
70534;SHT31;58088;51.186;17.130;2023-06-26T13:44:06;32.48;33.90
70534;SHT31;58088;51.186;17.130;2023-06-26T13:46:32;32.49;34.53
70534;SHT31;58088;51.186;17.130;2023-06-26T13:48:58;32.40;34.36
70534;SHT31;58088;51.186;17.130;2023-06-26T13:51:24;32.38;35.08
70534;SHT31;58088;51.186;17.130;2023-06-26T13:53:50;32.42;35.11
70534;SHT31;58088;51.186;17.130;2023-06-26T13:56:16;32.47;35.38
70534;SHT31;58088;51.186;17.130;2023-06-26T13:58:42;32.53;35.12
70534;SHT31;58088;51.186;17.130;2023-06-26T14:01:11;32.56;34.52
70534;SHT31;58088;51.186;17.130;2023-06-26T14:03:38;32.56;34.15
70534;SHT31;58088;51.186;17.130;2023-06-26T14:06:04;32.54;34.79
70534;SHT31;58088;51.186;17.130;2023-06-26T14:08:30;32.51;35.44
70534;SHT31;58088;51.186;17.130;2023-06-26T14:10:56;32.53;35.46
70534;SHT31;58088;51.186;17.130;2023-06-26T14:13:22;32.54;35.53
70534;SHT31;58088;51.186;17.130;2023-06-26T14:15:49;32.55;35.33
70534;SHT31;58088;51.186;17.130;2023-06-26T14:18:18;32.56;35.68
70534;SHT31;58088;51.186;17.130;2023-06-26T14:20:45;32.56;35.80
70534;SHT31;58088;51.186;17.130;2023-06-26T14:23:11;32.55;36.07
70534;SHT31;58088;51.186;17.130;2023-06-26T14:25:37;32.54;36.07
70534;SHT31;58088;51.186;17.130;2023-06-26T14:28:03;32.54;36.27
70534;SHT31;58088;51.186;17.130;2023-06-26T14:30:29;32.54;36.34
70534;SHT31;58088;51.186;17.130;2023-06-26T14:32:55;32.54;36.04
70534;SHT31;58088;51.186;17.130;2023-06-26T14:35:22;32.53;35.59
70534;SHT31;58088;51.186;17.130;2023-06-26T14:37:49;32.51;35.11
70534;SHT31;58088;51.186;17.130;2023-06-26T14:40:15;32.51;35.66
70534;SHT31;58088;51.186;17.130;2023-06-26T14:42:41;32.48;35.06
70534;SHT31;58088;51.186;17.130;2023-06-26T14:45:08;32.42;35.52
70534;SHT31;58088;51.186;17.130;2023-06-26T14:47:36;32.42;36.13
70534;SHT31;58088;51.186;17.130;2023-06-26T14:50:02;32.42;36.09
70534;SHT31;58088;51.186;17.130;2023-06-26T14:52:29;32.42;35.94
70534;SHT31;58088;51.186;17.130;2023-06-26T14:54:55;32.42;35.37
70534;SHT31;58088;51.186;17.130;2023-06-26T14:57:21;32.42;35.49
70534;SHT31;58088;51.186;17.130;2023-06-26T14:59:47;32.37;35.01
70534;SHT31;58088;51.186;17.130;2023-06-26T15:02:14;32.32;34.69
70534;SHT31;58088;51.186;17.130;2023-06-26T15:04:42;32.28;34.56
70534;SHT31;58088;51.186;17.130;2023-06-26T15:07:10;32.26;34.97
70534;SHT31;58088;51.186;17.130;2023-06-26T15:09:36;32.26;34.93
70534;SHT31;58088;51.186;17.130;2023-06-26T15:12:02;32.25;35.39
70534;SHT31;58088;51.186;17.130;2023-06-26T15:14:29;32.19;35.42
70534;SHT31;58088;51.186;17.130;2023-06-26T15:16:55;32.15;35.60
70534;SHT31;58088;51.186;17.130;2023-06-26T15:19:21;32.14;35.25
70534;SHT31;58088;51.186;17.130;2023-06-26T15:21:47;32.13;35.82
70534;SHT31;58088;51.186;17.130;2023-06-26T15:24:14;32.14;36.11
70534;SHT31;58088;51.186;17.130;2023-06-26T15:26:40;32.13;36.67
70534;SHT31;58088;51.186;17.130;2023-06-26T15:29:06;32.11;37.06
70534;SHT31;58088;51.186;17.130;2023-06-26T15:31:32;32.04;36.51
70534;SHT31;58088;51.186;17.130;2023-06-26T15:33:58;31.98;36.92
70534;SHT31;58088;51.186;17.130;2023-06-26T15:36:25;31.92;37.73
70534;SHT31;58088;51.186;17.130;2023-06-26T15:38:52;31.81;37.90
70534;SHT31;58088;51.186;17.130;2023-06-26T15:41:18;31.68;37.58